Silverdale, WA (98383)

12:46 AM PST on December 09, 2016 (GMT -0800)
Silverdale Waterfront | | Change Station
Active Advisory: Winter Weather Advisory

Elev 16 ft 47.64 °N, 122.70 °W | Updated 13 seconds ago

Snow
Snow
32.1 °F
Feels Like 32 °F
N
0.0
Wind Variable Wind from SSW
Gusts 0.0 mph

Today
High -- | Low -- °F
--% Chance of Precip.
Yesterday
High -- | Low -- °F
Precip. -- in
Pressure 29.98 in
Visibility 2.5 miles
Clouds Scattered Clouds 1300 ft
Mostly Cloudy 1900 ft
Overcast 2700 ft
Windchill 32 °F
Dew Point 30 °F
Humidity 92%
Rainfall 0.00 in
Snow Depth Not available.
7:47 AM 4:18 PM
Waxing Gibbous, 72% visible
METAR KPWT 090835Z 00000KT 2 1/2SM SCT013 BKN019 OVC027 M02/M02 A2998 RMK AO1
Pressure 29.98 in
Visibility 2.5 miles
Clouds Scattered Clouds 1300 ft
Mostly Cloudy 1900 ft
Overcast 2700 ft
Windchill 32 °F
Dew Point 30 °F
Humidity 92%
Rainfall 0.00 in
Snow Depth Not available.
7:47 AM 4:18 PM
Waxing Gibbous, 72% visible
METAR KPWT 090835Z 00000KT 2 1/2SM SCT013 BKN019 OVC027 M02/M02 A2998 RMK AO1

10-Day Weather Forecast

Almanac

Astronomy

Dec. 09, 2016 Rise Set
Actual Time
Civil Twilight
Nautical Twilight
Astronomical Twilight
Moon
Length of Visible Light
Length of Day
Tomorrow will be .
, % of the Moon is Illuminated

Today's Extremes

State Highs State Lows

Community

WunderPhotos

Upload Photos

1,956,371 photos uploaded!

WunderBlog® & News

Nearby

Air Quality

  Air Quality AQ Index Pollutant
Not available.

Snow Depth

Station Depth Elevation

Earthquake Activity

City Distance Mag. Time & Date
Minimum magnitude displayed is 2.5.

Coastal Water Temperatures

Place Temperature

Stations

Nearby Weather Stations

Station Location Temp. Windchill Dew Point Humidity Wind Precip. Elev Updated Type
                   

Watches & Warnings

Winter Weather Advisory
Issued: 6:28 PM PST Dec. 8, 2016 – National Weather Service

... Winter Weather Advisory remains in effect until 8 am PST Friday...

* timing... a weather system will move from south to north over
western Washington tonight. With cold air in place...
precipitation is starting as snow. Precipitation will turn to
rain from the south between 10 PM and 4 am. Some areas south of
Seattle may see a brief period of freezing rain.

* Accumulation... up to 3 inches of snow can be expected before
precipitation turns to rain. A brief period of freezing rain is
possible south of Seattle.

* Main impact... slippery roadways.

Precautionary/preparedness actions...

People planning on travel should be prepared for slippery roadways
overnight.